Time,TemperatureF,DewpointF,PressureIn,WindDirection,WindDirectionDegrees,WindSpeedMPH,WindSpeedGustMPH,Humidity,HourlyPrecipIn,Conditions,Clouds,dailyrainin,SoftwareType,DateUTC
2013-11-12 00:06:00,42.0,31.0,29.88,WSW,243,0.0,3.0,64,0.00,,,0.00,weatherlink.com 1.10,2013-11-12 05:06:00,
2013-11-12 00:21:00,42.2,31.0,29.88,WSW,251,1.0,3.0,64,0.00,,,0.00,weatherlink.com 1.10,2013-11-12 05:21:00,
2013-11-12 00:36:00,42.2,31.0,29.87,SW,226,1.0,3.0,64,0.00,,,0.00,weatherlink.com 1.10,2013-11-12 05:36:00,
2013-11-12 00:51:00,42.3,31.0,29.87,West,274,0.0,2.0,64,0.00,,,0.00,weatherlink.com 1.10,2013-11-12 05:51:00,
2013-11-12 01:06:00,42.3,32.0,29.87,SSW,210,1.0,2.0,66,0.00,,,0.00,weatherlink.com 1.10,2013-11-12 06:06:00,
2013-11-12 01:21:00,42.5,31.0,29.87,SW,226,0.0,3.0,65,0.00,,,0.00,weatherlink.com 1.10,2013-11-12 06:21:00,
2013-11-12 01:36:00,42.7,32.0,29.88,SW,229,1.0,5.0,65,0.00,,,0.00,weatherlink.com 1.10,2013-11-12 06:36:00,
2013-11-12 01:51:00,43.2,32.0,29.88,West,274,0.0,8.0,64,0.00,,,0.00,weatherlink.com 1.10,2013-11-12 06:51:00,
2013-11-12 02:06:00,43.2,32.0,29.87,WSW,239,1.0,9.0,64,0.00,,,0.00,weatherlink.com 1.10,2013-11-12 07:06:00,
2013-11-12 02:21:00,43.2,32.0,29.87,West,260,0.0,4.0,64,0.00,,,0.00,weatherlink.com 1.10,2013-11-12 07:21:00,
2013-11-12 02:36:00,43.1,32.0,29.87,WSW,246,1.0,4.0,66,0.00,,,0.00,weatherlink.com 1.10,2013-11-12 07:36:00,
2013-11-12 02:51:00,42.8,32.0,29.87,WSW,252,0.0,2.0,67,0.00,,,0.00,weatherlink.com 1.10,2013-11-12 07:51:00,
2013-11-12 03:06:00,42.8,33.0,29.87,NE,41,0.0,4.0,68,0.00,,,0.00,weatherlink.com 1.10,2013-11-12 08:06:00,
2013-11-12 03:21:00,42.8,33.0,29.88,SSW,201,0.0,2.0,69,0.00,,,0.00,weatherlink.com 1.10,2013-11-12 08:21:00,
2013-11-12 03:36:00,42.6,33.0,29.88,South,188,1.0,6.0,70,0.00,,,0.00,weatherlink.com 1.10,2013-11-12 08:36:00,
2013-11-12 03:52:00,42.7,34.0,29.89,SW,225,0.0,2.0,70,0.00,,,0.00,weatherlink.com 1.10,2013-11-12 08:52:00,
2013-11-12 04:07:00,39.0,34.0,29.91,North,349,1.0,11.0,81,0.00,,,0.00,weatherlink.com 1.10,2013-11-12 09:07:00,
2013-11-12 04:22:00,35.6,32.0,29.92,SSW,203,0.0,13.0,85,0.01,,,0.01,weatherlink.com 1.10,2013-11-12 09:22:00,
2013-11-12 04:37:00,34.6,31.0,29.93,North,349,3.0,11.0,87,0.01,,,0.01,weatherlink.com 1.10,2013-11-12 09:37:00,
2013-11-12 04:52:00,33.9,31.0,29.94,NW,326,1.0,7.0,88,0.01,,,0.01,weatherlink.com 1.10,2013-11-12 09:52:00,
2013-11-12 05:07:00,33.4,30.0,29.95,North,355,2.0,9.0,87,0.01,,,0.01,weatherlink.com 1.10,2013-11-12 10:07:00,
2013-11-12 05:22:00,33.0,29.0,29.96,WNW,293,3.0,10.0,85,0.00,,,0.01,weatherlink.com 1.10,2013-11-12 10:22:00,
2013-11-12 05:37:00,32.5,27.0,29.97,NW,323,0.0,11.0,80,0.00,,,0.01,weatherlink.com 1.10,2013-11-12 10:37:00,
2013-11-12 05:52:00,32.0,26.0,29.98,North,4,4.0,11.0,78,0.00,,,0.01,weatherlink.com 1.10,2013-11-12 10:52:00,
2013-11-12 06:07:00,31.9,25.0,29.98,NW,316,2.0,11.0,76,0.00,,,0.01,weatherlink.com 1.10,2013-11-12 11:07:00,
2013-11-12 06:22:00,31.7,25.0,29.98,North,357,2.0,5.0,76,0.00,,,0.01,weatherlink.com 1.10,2013-11-12 11:22:00,
2013-11-12 06:37:00,31.7,23.0,30.00,West,276,0.0,11.0,71,0.00,,,0.01,weatherlink.com 1.10,2013-11-12 11:37:00,
2013-11-12 06:52:00,31.6,22.0,30.00,NW,304,1.0,10.0,68,0.00,,,0.01,weatherlink.com 1.10,2013-11-12 11:52:00,
2013-11-12 07:07:00,31.5,22.0,30.01,NNW,336,2.0,8.0,68,0.00,,,0.01,weatherlink.com 1.10,2013-11-12 12:07:00,
2013-11-12 07:22:00,31.4,22.0,30.01,NNW,335,0.0,12.0,67,0.00,,,0.01,weatherlink.com 1.10,2013-11-12 12:22:00,
2013-11-12 07:37:00,31.2,21.0,30.02,WNW,294,0.0,9.0,66,0.00,,,0.01,weatherlink.com 1.10,2013-11-12 12:37:00,
2013-11-12 07:52:00,31.0,21.0,30.02,NW,315,1.0,9.0,67,0.00,,,0.01,weatherlink.com 1.10,2013-11-12 12:52:00,
2013-11-12 08:07:00,30.8,21.0,30.03,NNW,346,1.0,9.0,67,0.00,,,0.01,weatherlink.com 1.10,2013-11-12 13:07:00,
2013-11-12 08:22:00,30.7,19.0,30.04,NNW,333,3.0,11.0,62,0.00,,,0.01,weatherlink.com 1.10,2013-11-12 13:22:00,
2013-11-12 08:37:00,30.5,20.0,30.05,NNW,342,6.0,12.0,64,0.00,,,0.01,weatherlink.com 1.10,2013-11-12 13:37:00,
2013-11-12 08:52:00,30.4,19.0,30.05,North,349,8.0,11.0,64,0.00,,,0.01,weatherlink.com 1.10,2013-11-12 13:52:00,
2013-11-12 09:07:00,30.3,20.0,30.05,NNW,347,4.0,6.0,65,0.00,,,0.01,weatherlink.com 1.10,2013-11-12 14:07:00,
2013-11-12 09:22:00,30.3,20.0,30.05,NNW,342,0.0,13.0,65,0.00,,,0.01,weatherlink.com 1.10,2013-11-12 14:22:00,
2013-11-12 09:38:00,30.3,19.0,30.06,NNE,15,2.0,14.0,64,0.00,,,0.01,weatherlink.com 1.10,2013-11-12 14:38:00,
2013-11-12 09:53:00,30.3,20.0,30.07,NNE,29,7.0,12.0,66,0.00,,,0.01,weatherlink.com 1.10,2013-11-12 14:53:00,
2013-11-12 10:08:00,30.2,20.0,30.07,NNE,32,2.0,11.0,65,0.00,,,0.01,weatherlink.com 1.10,2013-11-12 15:08:00,
2013-11-12 10:23:00,30.3,20.0,30.07,North,9,2.0,6.0,66,0.00,,,0.01,weatherlink.com 1.10,2013-11-12 15:23:00,
2013-11-12 10:38:00,30.0,19.0,30.08,East,92,2.0,8.0,64,0.00,,,0.01,weatherlink.com 1.10,2013-11-12 15:38:00,
2013-11-12 10:53:00,29.9,19.0,30.07,NW,313,3.0,8.0,64,0.00,,,0.01,weatherlink.com 1.10,2013-11-12 15:53:00,
2013-11-12 11:08:00,29.6,18.0,30.07,NW,321,3.0,9.0,63,0.00,,,0.01,weatherlink.com 1.10,2013-11-12 16:08:00,
2013-11-12 11:23:00,29.4,19.0,30.07,NW,321,3.0,9.0,64,0.00,,,0.01,weatherlink.com 1.10,2013-11-12 16:23:00,
2013-11-12 11:38:00,29.4,18.0,30.07,NNE,14,4.0,13.0,63,0.00,,,0.01,weatherlink.com 1.10,2013-11-12 16:38:00,
2013-11-12 11:53:00,29.6,18.0,30.07,WNW,292,1.0,11.0,62,0.00,,,0.01,weatherlink.com 1.10,2013-11-12 16:53:00,
2013-11-12 12:08:00,29.3,17.0,30.07,North,354,5.0,11.0,60,0.00,,,0.01,weatherlink.com 1.10,2013-11-12 17:08:00,
2013-11-12 12:23:00,29.2,17.0,30.07,WNW,293,2.0,10.0,61,0.00,,,0.01,weatherlink.com 1.10,2013-11-12 17:23:00,
2013-11-12 12:38:00,29.5,17.0,30.08,WSW,243,2.0,12.0,60,0.00,,,0.01,weatherlink.com 1.10,2013-11-12 17:38:00,
2013-11-12 12:53:00,29.4,17.0,30.08,SSW,212,1.0,11.0,59,0.00,,,0.01,weatherlink.com 1.10,2013-11-12 17:53:00,
2013-11-12 13:08:00,29.4,17.0,30.08,NNW,328,8.0,8.0,59,0.00,,,0.01,weatherlink.com 1.10,2013-11-12 18:08:00,
2013-11-12 13:23:00,29.4,17.0,30.08,WNW,303,6.0,9.0,60,0.00,,,0.01,weatherlink.com 1.10,2013-11-12 18:23:00,
2013-11-12 13:38:00,29.6,17.0,30.08,WNW,298,3.0,12.0,59,0.00,,,0.01,weatherlink.com 1.10,2013-11-12 18:38:00,
2013-11-12 13:53:00,30.2,18.0,30.08,NNW,336,1.0,7.0,60,0.00,,,0.01,weatherlink.com 1.10,2013-11-12 18:53:00,
2013-11-12 14:08:00,30.3,17.0,30.08,North,358,2.0,12.0,59,0.00,,,0.01,weatherlink.com 1.10,2013-11-12 19:08:00,
2013-11-12 14:23:00,30.7,17.0,30.09,WNW,293,2.0,7.0,57,0.00,,,0.01,weatherlink.com 1.10,2013-11-12 19:23:00,
2013-11-12 14:38:00,30.9,17.0,30.09,NW,316,3.0,8.0,56,0.00,,,0.01,weatherlink.com 1.10,2013-11-12 19:38:00,
2013-11-12 14:53:00,32.5,18.0,30.09,NNW,335,0.0,4.0,55,0.00,,,0.01,weatherlink.com 1.10,2013-11-12 19:53:00,
2013-11-12 15:08:00,33.7,17.0,30.09,NNW,329,1.0,5.0,51,0.00,,,0.01,weatherlink.com 1.10,2013-11-12 20:08:00,
2013-11-12 15:23:00,32.6,16.0,30.10,NNE,23,3.0,17.0,51,0.00,,,0.01,weatherlink.com 1.10,2013-11-12 20:23:00,
2013-11-12 15:38:00,31.6,16.0,30.10,NW,311,5.0,10.0,52,0.00,,,0.01,weatherlink.com 1.10,2013-11-12 20:38:00,
2013-11-12 15:53:00,31.1,16.0,30.11,WSW,240,2.0,10.0,53,0.00,,,0.01,weatherlink.com 1.10,2013-11-12 20:53:00,
2013-11-12 16:08:00,30.6,16.0,30.11,NNW,329,3.0,8.0,54,0.00,,,0.01,weatherlink.com 1.10,2013-11-12 21:08:00,
2013-11-12 16:23:00,30.1,16.0,30.12,NW,316,1.0,6.0,55,0.00,,,0.01,weatherlink.com 1.10,2013-11-12 21:23:00,
2013-11-12 16:38:00,29.8,15.0,30.12,WNW,298,2.0,5.0,55,0.00,,,0.01,weatherlink.com 1.10,2013-11-12 21:38:00,
2013-11-12 16:53:00,29.4,15.0,30.13,NW,304,4.0,8.0,56,0.00,,,0.01,weatherlink.com 1.10,2013-11-12 21:53:00,
2013-11-12 17:08:00,29.3,16.0,30.13,NNW,336,1.0,5.0,57,0.00,,,0.01,weatherlink.com 1.10,2013-11-12 22:08:00,
2013-11-12 17:23:00,29.0,15.0,30.14,North,359,1.0,5.0,57,0.00,,,0.01,weatherlink.com 1.10,2013-11-12 22:23:00,
2013-11-12 17:39:00,28.7,15.0,30.14,WSW,252,1.0,6.0,58,0.00,,,0.01,weatherlink.com 1.10,2013-11-12 22:39:00,
2013-11-12 17:54:00,28.4,16.0,30.14,North,11,1.0,4.0,59,0.00,,,0.01,weatherlink.com 1.10,2013-11-12 22:54:00,
2013-11-12 18:09:00,27.8,15.0,30.15,NNW,330,2.0,3.0,60,0.00,,,0.01,weatherlink.com 1.10,2013-11-12 23:09:00,
2013-11-12 18:24:00,27.6,16.0,30.15,North,6,1.0,3.0,61,0.00,,,0.01,weatherlink.com 1.10,2013-11-12 23:24:00,
2013-11-12 18:40:00,27.5,16.0,30.15,NNW,345,1.0,5.0,61,0.00,,,0.01,weatherlink.com 1.10,2013-11-12 23:40:00,
2013-11-12 18:54:00,27.1,16.0,30.15,NNW,330,0.0,2.0,63,0.00,,,0.01,weatherlink.com 1.10,2013-11-12 23:54:00,
2013-11-12 19:09:00,26.8,16.0,30.15,NNW,335,0.0,3.0,63,0.00,,,0.01,weatherlink.com 1.10,2013-11-13 00:09:00,
2013-11-12 19:24:00,26.5,16.0,30.16,North,351,1.0,1.0,64,0.00,,,0.01,weatherlink.com 1.10,2013-11-13 00:24:00,
2013-11-12 19:39:00,26.7,16.0,30.16,NW,316,0.0,9.0,63,0.00,,,0.01,weatherlink.com 1.10,2013-11-13 00:39:00,
2013-11-12 19:54:00,26.9,15.0,30.15,NNE,20,0.0,8.0,62,0.00,,,0.01,weatherlink.com 1.10,2013-11-13 00:54:00,
2013-11-12 20:09:00,27.3,14.0,30.16,West,275,1.0,9.0,58,0.00,,,0.01,weatherlink.com 1.10,2013-11-13 01:09:00,
2013-11-12 20:24:00,27.4,14.0,30.16,NW,325,3.0,11.0,58,0.00,,,0.01,weatherlink.com 1.10,2013-11-13 01:24:00,
2013-11-12 20:39:00,27.3,14.0,30.16,NW,321,2.0,9.0,58,0.00,,,0.01,weatherlink.com 1.10,2013-11-13 01:39:00,
2013-11-12 20:54:00,26.9,14.0,30.17,WNW,289,0.0,5.0,59,0.00,,,0.01,weatherlink.com 1.10,2013-11-13 01:54:00,
2013-11-12 21:09:00,26.3,14.0,30.17,NNE,32,1.0,5.0,61,0.00,,,0.01,weatherlink.com 1.10,2013-11-13 02:09:00,
2013-11-12 21:24:00,26.4,14.0,30.16,NW,325,0.0,6.0,61,0.00,,,0.01,weatherlink.com 1.10,2013-11-13 02:24:00,
2013-11-12 21:39:00,26.2,15.0,30.16,WNW,293,2.0,5.0,62,0.00,,,0.01,weatherlink.com 1.10,2013-11-13 02:39:00,
2013-11-12 21:54:00,26.0,15.0,30.16,NW,317,2.0,4.0,63,0.00,,,0.01,weatherlink.com 1.10,2013-11-13 02:54:00,
2013-11-12 22:09:00,26.0,15.0,30.16,North,360,0.0,5.0,63,0.00,,,0.01,weatherlink.com 1.10,2013-11-13 03:09:00,
2013-11-12 22:24:00,25.9,15.0,30.17,North,353,2.0,8.0,63,0.00,,,0.01,weatherlink.com 1.10,2013-11-13 03:24:00,
2013-11-12 22:39:00,25.9,15.0,30.16,NNW,347,5.0,7.0,63,0.00,,,0.01,weatherlink.com 1.10,2013-11-13 03:39:00,
2013-11-12 22:54:00,25.9,15.0,30.17,NW,321,0.0,8.0,63,0.00,,,0.01,weatherlink.com 1.10,2013-11-13 03:54:00,
2013-11-12 23:09:00,25.6,15.0,30.17,East,91,0.0,1.0,65,0.00,,,0.01,weatherlink.com 1.10,2013-11-13 04:09:00,
2013-11-12 23:24:00,25.5,15.0,30.16,ESE,117,1.0,5.0,65,0.00,,,0.01,weatherlink.com 1.10,2013-11-13 04:24:00,
2013-11-12 23:39:00,25.6,15.0,30.16,NNW,330,2.0,4.0,64,0.00,,,0.01,weatherlink.com 1.10,2013-11-13 04:39:00,
2013-11-12 23:54:00,25.5,15.0,30.16,North,359,1.0,7.0,64,0.00,,,0.01,weatherlink.com 1.10,2013-11-13 04:54:00,